Time;durP1;ratioP1;P1;durP2;ratioP2;P2;SDS_P1;SDS_P2;PMS_P1;PMS_P2;Temp;Humidity;BMP_temperature;BMP_pressure;BME280_temperature;BME280_humidity;BME280_pressure;Samples;Min_cycle;Max_cycle;Signal;HPM_P1;HPM_P2
2023/03/18 00:02:11;;;;;;;;;;;;;;;;;;5134907;27;1498;-42
2023/03/18 00:04:39;;;;;;;;;;;;;;;;;;5134684;27;1840;-41
2023/03/18 00:07:07;;;;;;;;;;;;;;;;;;5134318;27;1868;-42
2023/03/18 00:09:34;;;;;;;;;;;;;;;;;;5134396;27;2130;-42
2023/03/18 00:12:01;;;;;;;;;;;;;;;;;;5134644;27;2148;-42
2023/03/18 00:14:28;;;;;;;;;;;;;;;;;;5134373;27;1838;-41
2023/03/18 00:16:56;;;;;;;;;;;;;;;;;;5132929;27;2038;-46
2023/03/18 00:19:24;;;;;;;;;;;;;;;;;;5134461;27;1820;-41
2023/03/18 00:21:51;;;;;;;;;;;;;;;;;;5134144;27;2284;-43
2023/03/18 00:24:19;;;;;;;;;;;;;;;;;;5134454;27;2163;-41
2023/03/18 00:26:47;;;;;;;;;;;;;;;;;;5115865;27;2407;-42
2023/03/18 00:29:14;;;;;;;;;;;;;;;;;;5134247;27;2050;-41
2023/03/18 00:31:42;;;;;;;;;;;;;;;;;;5148440;27;1796;-42
2023/03/18 00:34:10;;;;;;;;;;;;;;;;;;5154746;27;1713;-42
2023/03/18 00:36:40;;;;;;;;;;;;;;;;;;5136025;27;1829;-41
2023/03/18 00:39:08;;;;;;;;;;;;;;;;;;5154740;27;1965;-47
2023/03/18 00:41:36;;;;;;;;;;;;;;;;;;5154528;27;2106;-42
2023/03/18 00:44:04;;;;;;;;;;;;;;;;;;5154706;27;2143;-43
2023/03/18 00:46:35;;;;;;;;;;;;;;;;;;5154490;27;2016;-42
2023/03/18 00:49:04;;;;;;;;;;;;;;;;;;5154251;27;2004;-41
2023/03/18 00:51:32;;;;;;;;;;;;;;;;;;5154372;27;1345;-42
2023/03/18 00:54:01;;;;;;;;;;;;;;;;;;5154346;27;1699;-42
2023/03/18 00:56:29;;;;;;;;;;;;;;;;;;5142784;27;1942;-43
2023/03/18 00:58:58;;;;;;;;;;;;;;;;;;5115098;27;1983;-41
2023/03/18 01:01:26;;;;;;;;;;;;;;;;;;5133521;27;1921;-42
2023/03/18 01:03:54;;;;;;;;;;;;;;;;;;5114885;27;1393;-42
2023/03/18 01:06:25;;;;;;;;;;;;;;;;;;5114957;27;2229;-42
2023/03/18 01:08:52;;;;;;;;;;;;;;;;;;5133558;27;2050;-42
2023/03/18 01:11:20;;;;;;;;;;;;;;;;;;5114728;27;2005;-42
2023/03/18 01:13:48;;;;;;;;;;;;;;;;;;5111805;28;2180;-43
2023/03/18 01:16:15;;;;;;;;;;;;;;;;;;5112726;28;1808;-42
2023/03/18 01:18:42;;;;;;;;;;;;;;;;;;5111888;28;1939;-45
2023/03/18 01:21:10;;;;;;;;;;;;;;;;;;5112645;28;1777;-42
2023/03/18 01:23:46;;;;;;;;;;;;;;;;;;5111291;28;1903;-42
2023/03/18 01:26:14;;;;;;;;;;;;;;;;;;5111242;28;2094;-41
2023/03/18 01:28:43;;;;;;;;;;;;;;;;;;5110990;28;1376;-47
2023/03/18 01:31:11;;;;;;;;;;;;;;;;;;5111166;28;2105;-42
2023/03/18 01:33:40;;;;;;;;;;;;;;;;;;5111121;28;2218;-42
2023/03/18 01:36:08;;;;;;;;;;;;;;;;;;5112330;28;1810;-46
2023/03/18 01:38:35;;;;;;;;;;;;;;;;;;5110939;28;2415;-43
2023/03/18 01:41:09;;;;;;;;;;;;;;;;;;5112062;28;1801;-42
2023/03/18 01:43:39;;;;;;;;;;;;;;;;;;5110865;28;2413;-41
2023/03/18 01:46:25;;;;;;;;;;;;;;;;;;5110847;28;1715;-45
2023/03/18 01:48:52;;;;;;;;;;;;;;;;;;5112133;28;1815;-42
2023/03/18 01:51:20;;;;;;;;;;;;;;;;;;5110918;28;2205;-44
2023/03/18 01:53:49;;;;;;;;;;;;;;;;;;5110870;28;2033;-43
2023/03/18 01:56:17;;;;;;;;;;;;;;;;;;5117305;27;2163;-42
2023/03/18 01:58:46;;;;;;;;;;;;;;;;;;5110551;28;2269;-42
2023/03/18 02:01:27;;;;;;;;;;;;;;;;;;5110804;28;1721;-42
2023/03/18 02:03:56;;;;;;;;;;;;;;;;;;5110477;28;1665;-42
2023/03/18 02:06:24;;;;;;;;;;;;;;;;;;5110491;28;1856;-42
2023/03/18 02:08:59;;;;;;;;;;;;;;;;;;5111742;28;1813;-42
2023/03/18 02:11:30;;;;;;;;;;;;;;;;;;5110734;28;1583;-41
2023/03/18 02:13:59;;;;;;;;;;;;;;;;;;5110331;28;2023;-45
2023/03/18 02:16:31;;;;;;;;;;;;;;;;;;5110415;28;2360;-42
2023/03/18 02:19:01;;;;;;;;;;;;;;;;;;5110336;28;1972;-42
2023/03/18 02:21:55;;;;;;;;;;;;;;;;;;5111724;28;2029;-42
2023/03/18 02:24:28;;;;;;;;;;;;;;;;;;5103356;28;1649;-42
2023/03/18 02:26:58;;;;;;;;;;;;;;;;;;5113504;28;1429;-42
2023/03/18 02:29:35;;;;;;;;;;;;;;;;;;5131621;27;1794;-50
2023/03/18 02:32:08;;;;;;;;;;;;;;;;;;5128320;27;1877;-41
2023/03/18 02:34:36;;;;;;;;;;;;;;;;;;5115954;28;1996;-47
2023/03/18 02:37:06;;;;;;;;;;;;;;;;;;5114436;28;1688;-42
2023/03/18 02:39:36;;;;;;;;;;;;;;;;;;5114075;28;2233;-42
2023/03/18 02:42:04;;;;;;;;;;;;;;;;;;5114358;28;1709;-42
2023/03/18 02:44:40;;;;;;;;;;;;;;;;;;5114133;28;2029;-66
2023/03/18 02:47:30;;;;;;;;;;;;;;;;;;5109466;28;1552;-42
2023/03/18 02:49:58;;;;;;;;;;;;;;;;;;5115388;28;1727;-42
2023/03/18 02:52:26;;;;;;;;;;;;;;;;;;5114221;28;2127;-42
2023/03/18 02:54:57;;;;;;;;;;;;;;;;;;5114175;28;1887;-41
2023/03/18 02:57:26;;;;;;;;;;;;;;;;;;5114072;28;2081;-41
2023/03/18 02:59:56;;;;;;;;;;;;;;;;;;5113839;28;1972;-41
2023/03/18 03:02:24;;;;;;;;;;;;;;;;;;5113995;28;1907;-41
2023/03/18 03:04:51;;;;;;;;;;;;;;;;;;5115333;28;1290;-41
2023/03/18 03:07:19;;;;;;;;;;;;;;;;;;5113991;28;2058;-41
2023/03/18 03:09:51;;;;;;;;;;;;;;;;;;5114082;28;1460;-42
2023/03/18 03:12:18;;;;;;;;;;;;;;;;;;5113937;27;2060;-42
2023/03/18 03:14:50;;;;;;;;;;;;;;;;;;5117071;27;1856;-46
2023/03/18 03:17:18;;;;;;;;;;;;;;;;;;5117039;27;1782;-42
2023/03/18 03:19:45;;;;;;;;;;;;;;;;;;5135572;27;1978;-42
2023/03/18 03:22:13;;;;;;;;;;;;;;;;;;5116969;27;2133;-41
2023/03/18 03:24:40;;;;;;;;;;;;;;;;;;5135466;27;1834;-43
2023/03/18 03:27:08;;;;;;;;;;;;;;;;;;5135394;27;1841;-43
2023/03/18 03:29:35;;;;;;;;;;;;;;;;;;5116544;27;1916;-42
2023/03/18 03:32:02;;;;;;;;;;;;;;;;;;5116961;27;1685;-42
2023/03/18 03:34:30;;;;;;;;;;;;;;;;;;5135220;27;1382;-41
2023/03/18 03:36:57;;;;;;;;;;;;;;;;;;5135406;27;1975;-42
2023/03/18 03:39:26;;;;;;;;;;;;;;;;;;5116752;27;2131;-41
2023/03/18 03:41:53;;;;;;;;;;;;;;;;;;5115868;27;2230;-42
2023/03/18 03:44:20;;;;;;;;;;;;;;;;;;5135112;27;2018;-45
2023/03/18 03:46:48;;;;;;;;;;;;;;;;;;5135116;27;1403;-43
2023/03/18 03:49:15;;;;;;;;;;;;;;;;;;5116366;27;2114;-41
2023/03/18 03:51:42;;;;;;;;;;;;;;;;;;5116537;27;1589;-48
2023/03/18 03:54:12;;;;;;;;;;;;;;;;;;5116242;27;1785;-42
2023/03/18 03:56:39;;;;;;;;;;;;;;;;;;5147844;27;1873;-43
2023/03/18 03:59:08;;;;;;;;;;;;;;;;;;5136893;27;1910;-42
2023/03/18 04:01:54;;;;;;;;;;;;;;;;;;5155613;27;1724;-40
2023/03/18 04:04:23;;;;;;;;;;;;;;;;;;5155409;27;1668;-42
2023/03/18 04:06:51;;;;;;;;;;;;;;;;;;5136618;27;2148;-50
2023/03/18 04:09:18;;;;;;;;;;;;;;;;;;5136557;27;1431;-47
2023/03/18 04:11:46;;;;;;;;;;;;;;;;;;5155223;27;1915;-42
2023/03/18 04:14:15;;;;;;;;;;;;;;;;;;5132925;27;1839;-40
2023/03/18 04:16:43;;;;;;;;;;;;;;;;;;5124933;27;2267;-44
2023/03/18 04:19:11;;;;;;;;;;;;;;;;;;5113761;28;1906;-41
2023/03/18 04:21:38;;;;;;;;;;;;;;;;;;5113740;27;1963;-42
2023/03/18 04:24:05;;;;;;;;;;;;;;;;;;5112390;28;2157;-41
2023/03/18 04:26:32;;;;;;;;;;;;;;;;;;5120613;27;2035;-42
2023/03/18 04:29:03;;;;;;;;;;;;;;;;;;5112264;28;1761;-42
2023/03/18 04:31:31;;;;;;;;;;;;;;;;;;5113801;28;1899;-43
2023/03/18 04:33:58;;;;;;;;;;;;;;;;;;5112410;28;1387;-41
2023/03/18 04:36:27;;;;;;;;;;;;;;;;;;5112090;28;2098;-42
2023/03/18 04:38:55;;;;;;;;;;;;;;;;;;5111878;28;1894;-41
2023/03/18 04:41:24;;;;;;;;;;;;;;;;;;5111843;28;1946;-42
2023/03/18 04:43:53;;;;;;;;;;;;;;;;;;5113399;28;1636;-42
2023/03/18 04:46:28;;;;;;;;;;;;;;;;;;5111737;28;1875;-41
2023/03/18 04:48:57;;;;;;;;;;;;;;;;;;5111841;28;1830;-41
2023/03/18 04:51:26;;;;;;;;;;;;;;;;;;5111666;28;2204;-41
2023/03/18 04:53:54;;;;;;;;;;;;;;;;;;5110535;28;1958;-41
2023/03/18 04:56:24;;;;;;;;;;;;;;;;;;5119096;27;1979;-41
2023/03/18 04:58:52;;;;;;;;;;;;;;;;;;5112657;28;2056;-41
2023/03/18 05:01:25;;;;;;;;;;;;;;;;;;5111597;28;2372;-41
2023/03/18 05:03:53;;;;;;;;;;;;;;;;;;5111578;28;1909;-42
2023/03/18 05:06:29;;;;;;;;;;;;;;;;;;5111666;28;1834;-43
2023/03/18 05:09:04;;;;;;;;;;;;;;;;;;5111712;28;1879;-40
2023/03/18 05:11:33;;;;;;;;;;;;;;;;;;5112940;28;1510;-47
2023/03/18 05:14:09;;;;;;;;;;;;;;;;;;5111341;28;1942;-41
2023/03/18 05:16:42;;;;;;;;;;;;;;;;;;5111451;28;2148;-42
2023/03/18 05:19:09;;;;;;;;;;;;;;;;;;5112475;28;1898;-42
2023/03/18 05:21:43;;;;;;;;;;;;;;;;;;5112550;28;1724;-43
2023/03/18 05:24:11;;;;;;;;;;;;;;;;;;5111004;28;1632;-42
2023/03/18 05:26:40;;;;;;;;;;;;;;;;;;5111185;28;2102;-43
2023/03/18 05:29:08;;;;;;;;;;;;;;;;;;5111108;28;1954;-41
2023/03/18 05:31:42;;;;;;;;;;;;;;;;;;5111087;28;1825;-41
2023/03/18 05:34:10;;;;;;;;;;;;;;;;;;5111097;28;1443;-44
2023/03/18 05:36:37;;;;;;;;;;;;;;;;;;5110884;28;2235;-42
2023/03/18 05:39:07;;;;;;;;;;;;;;;;;;5110833;28;1905;-44
2023/03/18 05:41:34;;;;;;;;;;;;;;;;;;5111133;28;1861;-42
2023/03/18 05:44:04;;;;;;;;;;;;;;;;;;5111142;28;1746;-43
2023/03/18 05:46:36;;;;;;;;;;;;;;;;;;5110768;28;1868;-42
2023/03/18 05:49:10;;;;;;;;;;;;;;;;;;5110927;28;1528;-45
2023/03/18 05:51:57;;;;;;;;;;;;;;;;;;5112101;28;2016;-43
2023/03/18 05:54:34;;;;;;;;;;;;;;;;;;5110943;28;1482;-43
2023/03/18 05:57:02;;;;;;;;;;;;;;;;;;5110676;28;2042;-61
2023/03/18 05:59:30;;;;;;;;;;;;;;;;;;5110348;28;1974;-56
2023/03/18 06:02:00;;;;;;;;;;;;;;;;;;5127654;27;1824;-42
2023/03/18 06:04:28;;;;;;;;;;;;;;;;;;5110153;28;2007;-41
2023/03/18 06:06:55;;;;;;;;;;;;;;;;;;5110573;28;2128;-41
2023/03/18 06:09:24;;;;;;;;;;;;;;;;;;5110481;28;2354;-42
2023/03/18 06:11:51;;;;;;;;;;;;;;;;;;5111888;28;1855;-44
2023/03/18 06:14:20;;;;;;;;;;;;;;;;;;5110281;28;2186;-45
2023/03/18 06:16:49;;;;;;;;;;;;;;;;;;5109795;28;1789;-42
2023/03/18 06:19:20;;;;;;;;;;;;;;;;;;5110334;28;1965;-41
2023/03/18 06:21:48;;;;;;;;;;;;;;;;;;5110298;28;2241;-43
2023/03/18 06:24:17;;;;;;;;;;;;;;;;;;5111743;28;2017;-42
2023/03/18 06:26:44;;;;;;;;;;;;;;;;;;5110198;28;1849;-42
2023/03/18 06:29:12;;;;;;;;;;;;;;;;;;5110455;28;1981;-42
2023/03/18 06:31:39;;;;;;;;;;;;;;;;;;5111707;28;1611;-41
2023/03/18 06:34:09;;;;;;;;;;;;;;;;;;5110107;28;1936;-43
2023/03/18 06:36:38;;;;;;;;;;;;;;;;;;5110379;28;1534;-42
2023/03/18 06:39:11;;;;;;;;;;;;;;;;;;5111493;28;2244;-42
2023/03/18 06:41:38;;;;;;;;;;;;;;;;;;5132322;27;2094;-41
2023/03/18 06:44:24;;;;;;;;;;;;;;;;;;5132057;28;1804;-43
2023/03/18 06:46:55;;;;;;;;;;;;;;;;;;5130653;28;2098;-41
2023/03/18 06:49:23;;;;;;;;;;;;;;;;;;5130567;28;2117;-56
2023/03/18 06:51:57;;;;;;;;;;;;;;;;;;5130621;28;1799;-42
2023/03/18 06:54:25;;;;;;;;;;;;;;;;;;5103961;28;9744;-42
2023/03/18 06:56:52;;;;;;;;;;;;;;;;;;5095434;28;1935;-42
2023/03/18 06:59:22;;;;;;;;;;;;;;;;;;5090899;28;1967;-43
2023/03/18 07:01:49;;;;;;;;;;;;;;;;;;5089660;28;2019;-42
2023/03/18 07:04:19;;;;;;;;;;;;;;;;;;5089632;28;2100;-43
2023/03/18 07:06:47;;;;;;;;;;;;;;;;;;5089568;28;1788;-44
2023/03/18 07:09:15;;;;;;;;;;;;;;;;;;5089625;28;1721;-46
2023/03/18 07:11:47;;;;;;;;;;;;;;;;;;5109626;28;1288;-42
2023/03/18 07:14:20;;;;;;;;;;;;;;;;;;5105810;28;1834;-42
2023/03/18 07:16:48;;;;;;;;;;;;;;;;;;5090457;28;1743;-43
2023/03/18 07:19:16;;;;;;;;;;;;;;;;;;5092998;28;2332;-42
2023/03/18 07:21:45;;;;;;;;;;;;;;;;;;5110360;28;2102;-43
2023/03/18 07:24:13;;;;;;;;;;;;;;;;;;5094510;28;2248;-41
2023/03/18 07:26:40;;;;;;;;;;;;;;;;;;5094807;28;2138;-43
2023/03/18 07:29:09;;;;;;;;;;;;;;;;;;5111964;28;2150;-42
2023/03/18 07:31:37;;;;;;;;;;;;;;;;;;5114857;28;1702;-47
2023/03/18 07:34:04;;;;;;;;;;;;;;;;;;5114738;28;2228;-43
2023/03/18 07:36:32;;;;;;;;;;;;;;;;;;5114659;28;1851;-44
2023/03/18 07:38:59;;;;;;;;;;;;;;;;;;5114437;28;1907;-43
2023/03/18 07:41:26;;;;;;;;;;;;;;;;;;5114453;28;1817;-41
2023/03/18 07:43:54;;;;;;;;;;;;;;;;;;5114424;27;1745;-42
2023/03/18 07:46:21;;;;;;;;;;;;;;;;;;5114503;28;1899;-42
2023/03/18 07:48:49;;;;;;;;;;;;;;;;;;5114327;28;1767;-42
2023/03/18 07:51:16;;;;;;;;;;;;;;;;;;5114458;28;1719;-42
2023/03/18 07:53:44;;;;;;;;;;;;;;;;;;5114350;28;1996;-45
2023/03/18 07:56:11;;;;;;;;;;;;;;;;;;5105392;28;2224;-41
2023/03/18 07:58:38;;;;;;;;;;;;;;;;;;5093881;28;1753;-42
2023/03/18 08:01:06;;;;;;;;;;;;;;;;;;5093631;28;2172;-47
2023/03/18 08:03:33;;;;;;;;;;;;;;;;;;5093795;28;2126;-43
2023/03/18 08:06:01;;;;;;;;;;;;;;;;;;5093858;28;1533;-42
2023/03/18 08:08:28;;;;;;;;;;;;;;;;;;5093567;28;1998;-49
2023/03/18 08:10:57;;;;;;;;;;;;;;;;;;5093456;28;2113;-46
2023/03/18 08:13:24;;;;;;;;;;;;;;;;;;5088558;28;1856;-40
2023/03/18 08:15:52;;;;;;;;;;;;;;;;;;5073360;28;1840;-42
2023/03/18 08:18:19;;;;;;;;;;;;;;;;;;5073343;28;1279;-41
2023/03/18 08:20:47;;;;;;;;;;;;;;;;;;5072946;28;1981;-42
2023/03/18 08:23:14;;;;;;;;;;;;;;;;;;5073093;28;1947;-45
2023/03/18 08:25:41;;;;;;;;;;;;;;;;;;5073322;28;1803;-43
2023/03/18 08:28:09;;;;;;;;;;;;;;;;;;5072657;28;1999;-41
2023/03/18 08:30:37;;;;;;;;;;;;;;;;;;5073012;28;2002;-41
2023/03/18 08:33:05;;;;;;;;;;;;;;;;;;5072788;28;1985;-41
2023/03/18 08:35:33;;;;;;;;;;;;;;;;;;5072854;28;1871;-41
2023/03/18 08:38:00;;;;;;;;;;;;;;;;;;5072674;28;1535;-43
2023/03/18 08:40:28;;;;;;;;;;;;;;;;;;5072546;28;1912;-56
2023/03/18 08:42:55;;;;;;;;;;;;;;;;;;5072886;28;2167;-48
2023/03/18 08:45:22;;;;;;;;;;;;;;;;;;5081340;28;2454;-42
2023/03/18 08:47:50;;;;;;;;;;;;;;;;;;5087422;28;1984;-55
2023/03/18 08:50:17;;;;;;;;;;;;;;;;;;5089697;28;1767;-41
2023/03/18 08:52:46;;;;;;;;;;;;;;;;;;5092842;28;1777;-42
2023/03/18 08:55:17;;;;;;;;;;;;;;;;;;5091777;28;1914;-46
2023/03/18 08:57:49;;;;;;;;;;;;;;;;;;5072540;28;1953;-42
2023/03/18 09:00:20;;;;;;;;;;;;;;;;;;5072075;28;1967;-49
2023/03/18 09:02:49;;;;;;;;;;;;;;;;;;5072052;28;2005;-42
2023/03/18 09:05:20;;;;;;;;;;;;;;;;;;5072333;28;2115;-47
2023/03/18 09:07:52;;;;;;;;;;;;;;;;;;5070912;28;1241;-41
2023/03/18 09:10:22;;;;;;;;;;;;;;;;;;5072090;28;2331;-42
2023/03/18 09:12:52;;;;;;;;;;;;;;;;;;5081489;28;1674;-43
2023/03/18 09:15:21;;;;;;;;;;;;;;;;;;5112823;28;2212;-44
2023/03/18 09:17:53;;;;;;;;;;;;;;;;;;5112597;28;1941;-41
2023/03/18 09:20:41;;;;;;;;;;;;;;;;;;5112220;28;1929;-42
2023/03/18 09:23:14;;;;;;;;;;;;;;;;;;5112554;28;1855;-46
2023/03/18 09:25:47;;;;;;;;;;;;;;;;;;5112463;28;1817;-42
2023/03/18 09:28:17;;;;;;;;;;;;;;;;;;5094702;28;1352;-42
2023/03/18 09:30:50;;;;;;;;;;;;;;;;;;5112461;28;2035;-41
2023/03/18 09:33:19;;;;;;;;;;;;;;;;;;5112307;28;2045;-47
2023/03/18 09:35:48;;;;;;;;;;;;;;;;;;5112434;28;1328;-42
2023/03/18 09:38:16;;;;;;;;;;;;;;;;;;5112371;28;2053;-42
2023/03/18 09:41:03;;;;;;;;;;;;;;;;;;5111604;28;2170;-42
2023/03/18 09:43:50;;;;;;;;;;;;;;;;;;5112060;28;1810;-42
2023/03/18 09:46:23;;;;;;;;;;;;;;;;;;5112309;28;1994;-41
2023/03/18 09:48:59;;;;;;;;;;;;;;;;;;5111962;28;1673;-42
2023/03/18 09:51:39;;;;;;;;;;;;;;;;;;5112031;28;1953;-45
2023/03/18 09:54:21;;;;;;;;;;;;;;;;;;5111978;28;1878;-42
2023/03/18 09:56:49;;;;;;;;;;;;;;;;;;5112017;28;1942;-42
2023/03/18 09:59:20;;;;;;;;;;;;;;;;;;5112155;28;1848;-42
2023/03/18 10:01:50;;;;;;;;;;;;;;;;;;5111814;28;2154;-41
2023/03/18 10:04:20;;;;;;;;;;;;;;;;;;5094240;28;1601;-41
2023/03/18 10:06:51;;;;;;;;;;;;;;;;;;5111994;28;1765;-42
2023/03/18 10:09:27;;;;;;;;;;;;;;;;;;5094203;28;1852;-47
2023/03/18 10:12:13;;;;;;;;;;;;;;;;;;5111716;28;2165;-41
2023/03/18 10:14:45;;;;;;;;;;;;;;;;;;5111700;28;1469;-40
2023/03/18 10:17:37;;;;;;;;;;;;;;;;;;5110757;28;2044;-41
2023/03/18 10:20:14;;;;;;;;;;;;;;;;;;5111145;28;1980;-43
2023/03/18 10:22:53;;;;;;;;;;;;;;;;;;5111649;28;1644;-44
2023/03/18 10:25:27;;;;;;;;;;;;;;;;;;5111856;28;1898;-40
2023/03/18 10:28:03;;;;;;;;;;;;;;;;;;5111904;28;2340;-41
2023/03/18 10:30:35;;;;;;;;;;;;;;;;;;5111270;28;2007;-41
2023/03/18 10:33:18;;;;;;;;;;;;;;;;;;5111659;28;1981;-42
2023/03/18 10:36:06;;;;;;;;;;;;;;;;;;5111371;28;1916;-46
2023/03/18 10:38:37;;;;;;;;;;;;;;;;;;5111338;28;1449;-41
2023/03/18 10:41:13;;;;;;;;;;;;;;;;;;5111240;28;2169;-42
2023/03/18 10:43:40;;;;;;;;;;;;;;;;;;5111256;28;1824;-48
2023/03/18 10:46:08;;;;;;;;;;;;;;;;;;5111412;28;1996;-38
2023/03/18 10:48:38;;;;;;;;;;;;;;;;;;5111239;28;2107;-47
2023/03/18 10:51:18;;;;;;;;;;;;;;;;;;5113363;28;2156;-60
2023/03/18 10:53:49;;;;;;;;;;;;;;;;;;5115430;28;2338;-58
2023/03/18 10:56:17;;;;;;;;;;;;;;;;;;5115234;28;1892;-40
2023/03/18 10:58:45;;;;;;;;;;;;;;;;;;5115360;28;1333;-49
2023/03/18 11:01:16;;;;;;;;;;;;;;;;;;5114888;28;1983;-42
2023/03/18 11:03:56;;;;;;;;;;;;;;;;;;5096759;28;1704;-39
2023/03/18 11:06:29;;;;;;;;;;;;;;;;;;5115308;28;2228;-39
2023/03/18 11:09:04;;;;;;;;;;;;;;;;;;5114240;28;1976;-42
2023/03/18 11:11:33;;;;;;;;;;;;;;;;;;5116954;27;1528;-41
2023/03/18 11:14:02;;;;;;;;;;;;;;;;;;5135124;27;1839;-39
2023/03/18 11:16:29;;;;;;;;;;;;;;;;;;5135358;27;2198;-40
2023/03/18 11:18:57;;;;;;;;;;;;;;;;;;5135615;27;1818;-54
2023/03/18 11:21:25;;;;;;;;;;;;;;;;;;5135367;27;2587;-41
2023/03/18 11:24:06;;;;;;;;;;;;;;;;;;5135182;27;2121;-39
2023/03/18 11:26:45;;;;;;;;;;;;;;;;;;5135154;27;1719;-39
2023/03/18 11:29:17;;;;;;;;;;;;;;;;;;5135304;27;2108;-46
2023/03/18 11:31:50;;;;;;;;;;;;;;;;;;5135097;27;1635;-40
2023/03/18 11:34:20;;;;;;;;;;;;;;;;;;5135189;27;1787;-52
2023/03/18 11:37:03;;;;;;;;;;;;;;;;;;5135022;27;1740;-60
2023/03/18 11:39:36;;;;;;;;;;;;;;;;;;5135027;27;1625;-41
2023/03/18 11:42:17;;;;;;;;;;;;;;;;;;5134740;27;1978;-48
2023/03/18 11:44:45;;;;;;;;;;;;;;;;;;5134951;27;1793;-42
2023/03/18 11:47:16;;;;;;;;;;;;;;;;;;5134829;27;1977;-44
2023/03/18 11:49:43;;;;;;;;;;;;;;;;;;5134726;27;1825;-41
2023/03/18 11:52:20;;;;;;;;;;;;;;;;;;5134825;27;1509;-46
2023/03/18 11:54:50;;;;;;;;;;;;;;;;;;5116842;27;1745;-38
2023/03/18 11:57:44;;;;;;;;;;;;;;;;;;5116153;27;2010;-50
2023/03/18 12:00:30;;;;;;;;;;;;;;;;;;5106005;27;1979;-52
2023/03/18 12:03:06;;;;;;;;;;;;;;;;;;5134121;27;2247;-45
2023/03/18 12:05:39;;;;;;;;;;;;;;;;;;5134472;27;1539;-40
2023/03/18 12:08:28;;;;;;;;;;;;;;;;;;5134564;27;1963;-38
2023/03/18 12:11:06;;;;;;;;;;;;;;;;;;5134611;27;2154;-45
2023/03/18 12:13:33;;;;;;;;;;;;;;;;;;5134304;27;1540;-42
2023/03/18 12:16:19;;;;;;;;;;;;;;;;;;5134397;27;1663;-41
2023/03/18 12:18:47;;;;;;;;;;;;;;;;;;5115711;27;1918;-39
2023/03/18 12:21:29;;;;;;;;;;;;;;;;;;5134231;27;1983;-38
2023/03/18 12:24:19;;;;;;;;;;;;;;;;;;5115787;27;2054;-38
2023/03/18 12:27:05;;;;;;;;;;;;;;;;;;5134222;27;1483;-40
2023/03/18 12:29:56;;;;;;;;;;;;;;;;;;5133992;27;2166;-39
2023/03/18 12:32:30;;;;;;;;;;;;;;;;;;5126230;27;1858;-38
2023/03/18 12:35:13;;;;;;;;;;;;;;;;;;5114266;27;2019;-39
2023/03/18 12:38:00;;;;;;;;;;;;;;;;;;5113242;28;1443;-46
2023/03/18 12:40:28;;;;;;;;;;;;;;;;;;5113648;28;2019;-43
2023/03/18 12:43:23;;;;;;;;;;;;;;;;;;5113736;28;1559;-39
2023/03/18 12:45:52;;;;;;;;;;;;;;;;;;5113103;28;1938;-38
2023/03/18 12:48:26;;;;;;;;;;;;;;;;;;5113399;28;2088;-42
2023/03/18 12:51:11;;;;;;;;;;;;;;;;;;5113106;28;2213;-41
2023/03/18 12:53:46;;;;;;;;;;;;;;;;;;5113131;28;2251;-38
2023/03/18 12:56:18;;;;;;;;;;;;;;;;;;5122032;27;1946;-37
2023/03/18 12:59:01;;;;;;;;;;;;;;;;;;5133299;27;2292;-38
2023/03/18 13:01:32;;;;;;;;;;;;;;;;;;5133672;27;2252;-38
2023/03/18 13:04:01;;;;;;;;;;;;;;;;;;5133566;27;2118;-38
2023/03/18 13:06:40;;;;;;;;;;;;;;;;;;5133670;27;1922;-37
2023/03/18 13:09:14;;;;;;;;;;;;;;;;;;5133423;27;2217;-37
2023/03/18 13:11:54;;;;;;;;;;;;;;;;;;5133275;27;2152;-38
2023/03/18 13:14:24;;;;;;;;;;;;;;;;;;5132237;27;1815;-38
2023/03/18 13:16:52;;;;;;;;;;;;;;;;;;5133100;27;1836;-38
2023/03/18 13:19:20;;;;;;;;;;;;;;;;;;5133283;27;1664;-41
2023/03/18 13:21:51;;;;;;;;;;;;;;;;;;5133124;27;1911;-37
2023/03/18 13:24:21;;;;;;;;;;;;;;;;;;5132951;27;2153;-37
2023/03/18 13:26:49;;;;;;;;;;;;;;;;;;5133043;27;1972;-38
2023/03/18 13:29:22;;;;;;;;;;;;;;;;;;5132972;27;1884;-37
2023/03/18 13:31:51;;;;;;;;;;;;;;;;;;5132842;27;1536;-37
2023/03/18 13:34:25;;;;;;;;;;;;;;;;;;5132900;27;1641;-38
2023/03/18 13:37:07;;;;;;;;;;;;;;;;;;5132730;27;1875;-37
2023/03/18 13:39:57;;;;;;;;;;;;;;;;;;5132809;27;1991;-38
2023/03/18 13:42:27;;;;;;;;;;;;;;;;;;5132542;27;2011;-37
2023/03/18 13:44:54;;;;;;;;;;;;;;;;;;5132544;27;2170;-37
2023/03/18 13:47:22;;;;;;;;;;;;;;;;;;5113954;27;1603;-41
2023/03/18 13:49:58;;;;;;;;;;;;;;;;;;5112147;28;1579;-37
2023/03/18 13:52:32;;;;;;;;;;;;;;;;;;5111962;28;1657;-39
2023/03/18 13:55:06;;;;;;;;;;;;;;;;;;5111985;28;1380;-42
2023/03/18 13:57:35;;;;;;;;;;;;;;;;;;5111960;28;1631;-38
2023/03/18 14:00:32;;;;;;;;;;;;;;;;;;5117663;27;2083;-43
2023/03/18 14:03:22;;;;;;;;;;;;;;;;;;5119110;27;1893;-40
2023/03/18 14:06:05;;;;;;;;;;;;;;;;;;5132375;27;1956;-38
2023/03/18 14:08:41;;;;;;;;;;;;;;;;;;5132521;27;1262;-40
2023/03/18 14:11:27;;;;;;;;;;;;;;;;;;5132151;27;1773;-39
2023/03/18 14:13:54;;;;;;;;;;;;;;;;;;5132275;27;1834;-39
2023/03/18 14:16:36;;;;;;;;;;;;;;;;;;5132466;27;1013;-57
2023/03/18 14:19:17;;;;;;;;;;;;;;;;;;5132157;27;1817;-39
2023/03/18 14:22:04;;;;;;;;;;;;;;;;;;5131935;27;2226;-39
2023/03/18 14:24:34;;;;;;;;;;;;;;;;;;5132350;28;1666;-38
2023/03/18 14:27:03;;;;;;;;;;;;;;;;;;5131799;27;1943;-37
2023/03/18 14:29:36;;;;;;;;;;;;;;;;;;5132050;28;1083;-41
2023/03/18 14:32:23;;;;;;;;;;;;;;;;;;5131969;28;1834;-54
2023/03/18 14:35:16;;;;;;;;;;;;;;;;;;5131775;28;1900;-42
2023/03/18 14:38:03;;;;;;;;;;;;;;;;;;5131739;28;2409;-41
2023/03/18 14:40:34;;;;;;;;;;;;;;;;;;5131941;28;1515;-37
2023/03/18 14:43:06;;;;;;;;;;;;;;;;;;5131861;28;1905;-37
2023/03/18 14:45:36;;;;;;;;;;;;;;;;;;5132046;28;1829;-40
2023/03/18 14:48:10;;;;;;;;;;;;;;;;;;5132051;28;2159;-44
2023/03/18 14:50:43;;;;;;;;;;;;;;;;;;5132043;28;1265;-39
2023/03/18 14:53:21;;;;;;;;;;;;;;;;;;5131691;28;1594;-41
2023/03/18 14:55:52;;;;;;;;;;;;;;;;;;5125936;28;2187;-38
2023/03/18 14:58:23;;;;;;;;;;;;;;;;;;5111291;28;2207;-47
2023/03/18 15:00:55;;;;;;;;;;;;;;;;;;5111289;28;1993;-36
2023/03/18 15:03:30;;;;;;;;;;;;;;;;;;5111262;28;1280;-44
2023/03/18 15:05:59;;;;;;;;;;;;;;;;;;5110939;28;2429;-40
2023/03/18 15:08:28;;;;;;;;;;;;;;;;;;5111209;28;2046;-41
2023/03/18 15:11:13;;;;;;;;;;;;;;;;;;5110975;28;2071;-37
2023/03/18 15:13:40;;;;;;;;;;;;;;;;;;5111127;28;1504;-41
2023/03/18 15:16:10;;;;;;;;;;;;;;;;;;5111310;28;1695;-38
2023/03/18 15:18:38;;;;;;;;;;;;;;;;;;5110607;28;1718;-49
2023/03/18 15:21:12;;;;;;;;;;;;;;;;;;5111286;28;1907;-38
2023/03/18 15:23:44;;;;;;;;;;;;;;;;;;5111188;28;1334;-43
2023/03/18 15:26:18;;;;;;;;;;;;;;;;;;5111399;28;1974;-36
2023/03/18 15:28:46;;;;;;;;;;;;;;;;;;5111093;28;1809;-38
2023/03/18 15:31:27;;;;;;;;;;;;;;;;;;5110508;28;1336;-35
2023/03/18 15:34:03;;;;;;;;;;;;;;;;;;5111090;28;1667;-39
2023/03/18 15:36:39;;;;;;;;;;;;;;;;;;5110989;28;1951;-42
2023/03/18 15:39:24;;;;;;;;;;;;;;;;;;5113921;28;1972;-47
2023/03/18 15:41:52;;;;;;;;;;;;;;;;;;5114456;28;2077;-42
2023/03/18 15:44:35;;;;;;;;;;;;;;;;;;5114421;28;2239;-36
2023/03/18 15:47:12;;;;;;;;;;;;;;;;;;5114367;28;1716;-35
2023/03/18 15:49:51;;;;;;;;;;;;;;;;;;5114544;28;1816;-35
2023/03/18 15:52:41;;;;;;;;;;;;;;;;;;5114321;28;2127;-35
2023/03/18 15:55:28;;;;;;;;;;;;;;;;;;5114499;28;1965;-36
2023/03/18 15:57:56;;;;;;;;;;;;;;;;;;5134728;27;1746;-39
2023/03/18 16:00:23;;;;;;;;;;;;;;;;;;5134661;27;2258;-36
2023/03/18 16:02:50;;;;;;;;;;;;;;;;;;5134376;27;2021;-36
2023/03/18 16:05:18;;;;;;;;;;;;;;;;;;5116000;27;2337;-35
2023/03/18 16:07:45;;;;;;;;;;;;;;;;;;5134562;27;2001;-36
2023/03/18 16:10:17;;;;;;;;;;;;;;;;;;5134570;27;1713;-35
2023/03/18 16:12:50;;;;;;;;;;;;;;;;;;5134366;27;1593;-35
2023/03/18 16:15:22;;;;;;;;;;;;;;;;;;5134581;27;1803;-38
2023/03/18 16:17:52;;;;;;;;;;;;;;;;;;5134484;27;2140;-48
2023/03/18 16:20:24;;;;;;;;;;;;;;;;;;5134299;27;2298;-34
2023/03/18 16:22:52;;;;;;;;;;;;;;;;;;5134315;27;1994;-35
2023/03/18 16:25:19;;;;;;;;;;;;;;;;;;5134293;27;1690;-36
2023/03/18 16:27:48;;;;;;;;;;;;;;;;;;5134463;27;2252;-34
2023/03/18 16:30:27;;;;;;;;;;;;;;;;;;5134190;27;1772;-35
2023/03/18 16:32:55;;;;;;;;;;;;;;;;;;5133881;27;1945;-36
2023/03/18 16:35:24;;;;;;;;;;;;;;;;;;5134134;27;1960;-35
2023/03/18 16:37:52;;;;;;;;;;;;;;;;;;5134009;27;1269;-35
2023/03/18 16:40:20;;;;;;;;;;;;;;;;;;5115437;27;2322;-35
2023/03/18 16:42:49;;;;;;;;;;;;;;;;;;5133817;27;2262;-37
2023/03/18 16:45:18;;;;;;;;;;;;;;;;;;5133511;27;2208;-35
2023/03/18 16:47:47;;;;;;;;;;;;;;;;;;5134188;27;1814;-35
2023/03/18 16:50:16;;;;;;;;;;;;;;;;;;5133807;27;2033;-35
2023/03/18 16:52:44;;;;;;;;;;;;;;;;;;5134016;27;1593;-34
2023/03/18 16:55:16;;;;;;;;;;;;;;;;;;5133422;27;2008;-35
2023/03/18 16:57:48;;;;;;;;;;;;;;;;;;5113312;28;1851;-34
2023/03/18 17:00:23;;;;;;;;;;;;;;;;;;5113132;28;1967;-35
2023/03/18 17:02:54;;;;;;;;;;;;;;;;;;5094315;28;1961;-46
2023/03/18 17:05:21;;;;;;;;;;;;;;;;;;5113054;28;2027;-35
2023/03/18 17:07:50;;;;;;;;;;;;;;;;;;5112893;28;2086;-35
2023/03/18 17:10:20;;;;;;;;;;;;;;;;;;5112823;28;1684;-34
2023/03/18 17:12:51;;;;;;;;;;;;;;;;;;5112679;28;2102;-35
2023/03/18 17:15:22;;;;;;;;;;;;;;;;;;5112853;28;1289;-35
2023/03/18 17:17:51;;;;;;;;;;;;;;;;;;5112688;28;1844;-36
2023/03/18 17:20:20;;;;;;;;;;;;;;;;;;5112591;28;1725;-35
2023/03/18 17:22:47;;;;;;;;;;;;;;;;;;5112567;28;1890;-37
2023/03/18 17:25:15;;;;;;;;;;;;;;;;;;5112623;28;1779;-34
2023/03/18 17:27:44;;;;;;;;;;;;;;;;;;5112581;28;1932;-36
2023/03/18 17:30:15;;;;;;;;;;;;;;;;;;5112488;28;1948;-36
2023/03/18 17:32:42;;;;;;;;;;;;;;;;;;5112836;28;1683;-35
2023/03/18 17:35:14;;;;;;;;;;;;;;;;;;5112323;28;2084;-40